sensor_id;sensor_type;location;lat;lon;timestamp;temperature;humidity
40622;DHT22;26324;52.040;11.528;2023-08-30T00:00:30;15.70;82.40
40622;DHT22;26324;52.040;11.528;2023-08-30T00:02:58;15.80;82.40
40622;DHT22;26324;52.040;11.528;2023-08-30T00:05:25;15.60;82.30
40622;DHT22;26324;52.040;11.528;2023-08-30T00:07:54;15.60;82.20
40622;DHT22;26324;52.040;11.528;2023-08-30T00:10:22;15.70;81.90
40622;DHT22;26324;52.040;11.528;2023-08-30T00:12:50;15.80;81.50
40622;DHT22;26324;52.040;11.528;2023-08-30T00:15:17;15.70;81.70
40622;DHT22;26324;52.040;11.528;2023-08-30T00:17:45;15.50;81.70
40622;DHT22;26324;52.040;11.528;2023-08-30T00:20:13;15.40;82.20
40622;DHT22;26324;52.040;11.528;2023-08-30T00:22:40;15.30;82.50
40622;DHT22;26324;52.040;11.528;2023-08-30T00:25:08;15.40;82.60
40622;DHT22;26324;52.040;11.528;2023-08-30T00:27:35;15.30;82.80
40622;DHT22;26324;52.040;11.528;2023-08-30T00:30:03;15.50;82.60
40622;DHT22;26324;52.040;11.528;2023-08-30T00:32:31;15.40;82.60
40622;DHT22;26324;52.040;11.528;2023-08-30T00:34:58;15.50;82.60
40622;DHT22;26324;52.040;11.528;2023-08-30T00:37:25;15.50;82.40
40622;DHT22;26324;52.040;11.528;2023-08-30T00:39:53;15.30;82.30
40622;DHT22;26324;52.040;11.528;2023-08-30T00:42:20;15.20;82.50
40622;DHT22;26324;52.040;11.528;2023-08-30T00:44:49;15.30;82.50
40622;DHT22;26324;52.040;11.528;2023-08-30T00:47:16;15.10;83.20
40622;DHT22;26324;52.040;11.528;2023-08-30T00:49:43;15.00;83.40
40622;DHT22;26324;52.040;11.528;2023-08-30T00:52:11;14.80;83.60
40622;DHT22;26324;52.040;11.528;2023-08-30T00:54:39;14.70;84.10
40622;DHT22;26324;52.040;11.528;2023-08-30T00:57:06;14.80;84.00
40622;DHT22;26324;52.040;11.528;2023-08-30T00:59:34;14.90;83.70
40622;DHT22;26324;52.040;11.528;2023-08-30T01:02:02;14.90;83.30
40622;DHT22;26324;52.040;11.528;2023-08-30T01:04:29;14.90;83.40
40622;DHT22;26324;52.040;11.528;2023-08-30T01:06:57;14.60;83.90
40622;DHT22;26324;52.040;11.528;2023-08-30T01:09:26;14.60;84.00
40622;DHT22;26324;52.040;11.528;2023-08-30T01:12:00;14.50;83.90
40622;DHT22;26324;52.040;11.528;2023-08-30T01:15:00;14.40;84.20
40622;DHT22;26324;52.040;11.528;2023-08-30T01:17:26;14.30;84.70
40622;DHT22;26324;52.040;11.528;2023-08-30T01:22:44;14.20;84.80
40622;DHT22;26324;52.040;11.528;2023-08-30T01:27:43;14.10;85.50
40622;DHT22;26324;52.040;11.528;2023-08-30T01:30:14;14.20;85.20
40622;DHT22;26324;52.040;11.528;2023-08-30T01:32:43;14.20;84.80
40622;DHT22;26324;52.040;11.528;2023-08-30T01:35:12;14.20;84.70
40622;DHT22;26324;52.040;11.528;2023-08-30T01:37:45;14.00;84.80
40622;DHT22;26324;52.040;11.528;2023-08-30T01:40:15;13.90;85.20
40622;DHT22;26324;52.040;11.528;2023-08-30T01:42:44;13.90;85.00
40622;DHT22;26324;52.040;11.528;2023-08-30T01:45:14;13.70;85.50
40622;DHT22;26324;52.040;11.528;2023-08-30T01:47:43;13.60;86.10
40622;DHT22;26324;52.040;11.528;2023-08-30T01:50:11;13.60;86.20
40622;DHT22;26324;52.040;11.528;2023-08-30T01:52:40;13.60;86.20
40622;DHT22;26324;52.040;11.528;2023-08-30T01:55:08;13.50;86.30
40622;DHT22;26324;52.040;11.528;2023-08-30T01:57:37;13.60;86.00
40622;DHT22;26324;52.040;11.528;2023-08-30T02:00:04;13.50;86.00
40622;DHT22;26324;52.040;11.528;2023-08-30T02:02:41;13.50;85.90
40622;DHT22;26324;52.040;11.528;2023-08-30T02:05:09;13.50;85.90
40622;DHT22;26324;52.040;11.528;2023-08-30T02:07:42;13.40;86.10
40622;DHT22;26324;52.040;11.528;2023-08-30T02:10:14;13.40;86.30
40622;DHT22;26324;52.040;11.528;2023-08-30T02:12:51;13.30;86.50
40622;DHT22;26324;52.040;11.528;2023-08-30T02:15:20;13.20;87.10
40622;DHT22;26324;52.040;11.528;2023-08-30T02:17:48;13.30;86.80
40622;DHT22;26324;52.040;11.528;2023-08-30T02:20:17;13.10;87.30
40622;DHT22;26324;52.040;11.528;2023-08-30T02:22:45;13.10;87.70
40622;DHT22;26324;52.040;11.528;2023-08-30T02:25:12;13.10;87.70
40622;DHT22;26324;52.040;11.528;2023-08-30T02:27:39;13.00;88.00
40622;DHT22;26324;52.040;11.528;2023-08-30T02:30:08;13.10;87.80
40622;DHT22;26324;52.040;11.528;2023-08-30T02:32:35;13.10;87.60
40622;DHT22;26324;52.040;11.528;2023-08-30T02:35:04;13.00;87.90
40622;DHT22;26324;52.040;11.528;2023-08-30T02:37:31;13.00;88.00
40622;DHT22;26324;52.040;11.528;2023-08-30T02:39:59;13.00;87.90
40622;DHT22;26324;52.040;11.528;2023-08-30T02:42:27;13.00;87.70
40622;DHT22;26324;52.040;11.528;2023-08-30T02:44:54;13.00;87.80
40622;DHT22;26324;52.040;11.528;2023-08-30T02:47:21;13.00;87.60
40622;DHT22;26324;52.040;11.528;2023-08-30T02:49:49;13.00;87.40
40622;DHT22;26324;52.040;11.528;2023-08-30T02:52:17;12.90;87.30
40622;DHT22;26324;52.040;11.528;2023-08-30T02:54:45;12.90;87.10
40622;DHT22;26324;52.040;11.528;2023-08-30T02:57:12;12.90;87.30
40622;DHT22;26324;52.040;11.528;2023-08-30T02:59:39;12.80;87.50
40622;DHT22;26324;52.040;11.528;2023-08-30T03:02:07;12.80;87.80
40622;DHT22;26324;52.040;11.528;2023-08-30T03:04:34;12.80;87.70
40622;DHT22;26324;52.040;11.528;2023-08-30T03:07:01;12.80;87.90
40622;DHT22;26324;52.040;11.528;2023-08-30T03:09:29;12.70;87.90
40622;DHT22;26324;52.040;11.528;2023-08-30T03:11:56;12.70;87.90
40622;DHT22;26324;52.040;11.528;2023-08-30T03:14:24;12.60;88.10
40622;DHT22;26324;52.040;11.528;2023-08-30T03:16:51;12.60;88.30
40622;DHT22;26324;52.040;11.528;2023-08-30T03:19:19;12.50;88.10
40622;DHT22;26324;52.040;11.528;2023-08-30T03:21:46;12.50;88.00
40622;DHT22;26324;52.040;11.528;2023-08-30T03:24:13;12.50;87.80
40622;DHT22;26324;52.040;11.528;2023-08-30T03:26:43;12.40;87.90
40622;DHT22;26324;52.040;11.528;2023-08-30T03:29:11;12.40;87.90
40622;DHT22;26324;52.040;11.528;2023-08-30T03:31:39;12.40;87.90
40622;DHT22;26324;52.040;11.528;2023-08-30T03:34:06;12.40;87.90
40622;DHT22;26324;52.040;11.528;2023-08-30T03:36:33;12.40;87.40
40622;DHT22;26324;52.040;11.528;2023-08-30T03:39:01;12.50;87.40
40622;DHT22;26324;52.040;11.528;2023-08-30T03:41:29;12.40;87.30
40622;DHT22;26324;52.040;11.528;2023-08-30T03:44:00;12.30;87.30
40622;DHT22;26324;52.040;11.528;2023-08-30T03:46:28;12.20;87.40
40622;DHT22;26324;52.040;11.528;2023-08-30T03:48:55;12.20;87.70
40622;DHT22;26324;52.040;11.528;2023-08-30T03:51:23;12.30;87.80
40622;DHT22;26324;52.040;11.528;2023-08-30T03:53:51;12.30;87.60
40622;DHT22;26324;52.040;11.528;2023-08-30T03:56:18;12.30;87.30
40622;DHT22;26324;52.040;11.528;2023-08-30T03:58:45;12.30;87.30
40622;DHT22;26324;52.040;11.528;2023-08-30T04:01:13;12.30;87.40
40622;DHT22;26324;52.040;11.528;2023-08-30T04:03:40;12.30;87.50
40622;DHT22;26324;52.040;11.528;2023-08-30T04:06:08;12.40;87.30
40622;DHT22;26324;52.040;11.528;2023-08-30T04:08:35;12.40;87.10
40622;DHT22;26324;52.040;11.528;2023-08-30T04:11:03;12.40;87.00
40622;DHT22;26324;52.040;11.528;2023-08-30T04:13:30;12.40;87.10
40622;DHT22;26324;52.040;11.528;2023-08-30T04:15:57;12.40;86.90
40622;DHT22;26324;52.040;11.528;2023-08-30T04:18:26;12.40;87.30
40622;DHT22;26324;52.040;11.528;2023-08-30T04:20:53;12.40;87.20
40622;DHT22;26324;52.040;11.528;2023-08-30T04:23:21;12.30;87.50
40622;DHT22;26324;52.040;11.528;2023-08-30T04:25:49;12.30;87.70
40622;DHT22;26324;52.040;11.528;2023-08-30T04:28:17;12.30;87.50
40622;DHT22;26324;52.040;11.528;2023-08-30T04:30:45;12.30;87.70
40622;DHT22;26324;52.040;11.528;2023-08-30T04:33:13;12.30;87.50
40622;DHT22;26324;52.040;11.528;2023-08-30T04:35:40;12.40;87.60
40622;DHT22;26324;52.040;11.528;2023-08-30T04:38:08;12.40;87.40
40622;DHT22;26324;52.040;11.528;2023-08-30T04:40:37;12.40;87.20
40622;DHT22;26324;52.040;11.528;2023-08-30T04:43:05;12.30;87.40
40622;DHT22;26324;52.040;11.528;2023-08-30T04:45:35;12.30;87.30
40622;DHT22;26324;52.040;11.528;2023-08-30T04:48:05;12.30;87.70
40622;DHT22;26324;52.040;11.528;2023-08-30T04:50:33;12.30;87.50
40622;DHT22;26324;52.040;11.528;2023-08-30T04:53:01;12.30;87.50
40622;DHT22;26324;52.040;11.528;2023-08-30T04:55:29;12.40;87.40
40622;DHT22;26324;52.040;11.528;2023-08-30T04:57:59;12.40;87.20
40622;DHT22;26324;52.040;11.528;2023-08-30T05:00:32;12.40;87.20
40622;DHT22;26324;52.040;11.528;2023-08-30T05:03:00;12.40;87.00
40622;DHT22;26324;52.040;11.528;2023-08-30T05:05:28;12.40;87.10
40622;DHT22;26324;52.040;11.528;2023-08-30T05:07:58;12.30;87.40
40622;DHT22;26324;52.040;11.528;2023-08-30T05:10:26;12.30;87.60
40622;DHT22;26324;52.040;11.528;2023-08-30T05:12:54;12.30;87.70
40622;DHT22;26324;52.040;11.528;2023-08-30T05:15:21;12.20;87.80
40622;DHT22;26324;52.040;11.528;2023-08-30T05:17:49;12.20;87.90
40622;DHT22;26324;52.040;11.528;2023-08-30T05:20:17;12.10;88.30
40622;DHT22;26324;52.040;11.528;2023-08-30T05:22:44;12.20;88.20
40622;DHT22;26324;52.040;11.528;2023-08-30T05:25:11;12.20;88.20
40622;DHT22;26324;52.040;11.528;2023-08-30T05:27:39;12.20;88.40
40622;DHT22;26324;52.040;11.528;2023-08-30T05:30:07;12.20;88.40
40622;DHT22;26324;52.040;11.528;2023-08-30T05:32:35;12.10;88.40
40622;DHT22;26324;52.040;11.528;2023-08-30T05:35:38;12.10;88.60
40622;DHT22;26324;52.040;11.528;2023-08-30T05:38:13;12.30;88.50
40622;DHT22;26324;52.040;11.528;2023-08-30T05:40:58;12.20;88.30
40622;DHT22;26324;52.040;11.528;2023-08-30T05:43:28;12.30;88.30
40622;DHT22;26324;52.040;11.528;2023-08-30T05:45:56;12.20;88.30
40622;DHT22;26324;52.040;11.528;2023-08-30T05:48:29;12.20;88.50
40622;DHT22;26324;52.040;11.528;2023-08-30T05:50:57;12.20;88.80
40622;DHT22;26324;52.040;11.528;2023-08-30T05:53:24;12.20;88.90
40622;DHT22;26324;52.040;11.528;2023-08-30T05:55:53;12.30;89.00
40622;DHT22;26324;52.040;11.528;2023-08-30T05:58:21;12.30;88.90
40622;DHT22;26324;52.040;11.528;2023-08-30T06:00:49;12.50;88.80
40622;DHT22;26324;52.040;11.528;2023-08-30T06:03:16;12.60;88.60
40622;DHT22;26324;52.040;11.528;2023-08-30T06:05:44;12.70;88.00
40622;DHT22;26324;52.040;11.528;2023-08-30T06:08:11;12.80;87.50
40622;DHT22;26324;52.040;11.528;2023-08-30T06:10:39;12.80;87.80
40622;DHT22;26324;52.040;11.528;2023-08-30T06:13:07;12.90;87.50
40622;DHT22;26324;52.040;11.528;2023-08-30T06:15:35;13.10;87.80
40622;DHT22;26324;52.040;11.528;2023-08-30T06:18:04;13.20;87.00
40622;DHT22;26324;52.040;11.528;2023-08-30T06:20:32;13.40;87.20
40622;DHT22;26324;52.040;11.528;2023-08-30T06:23:03;13.50;87.20
40622;DHT22;26324;52.040;11.528;2023-08-30T06:25:30;13.60;86.50
40622;DHT22;26324;52.040;11.528;2023-08-30T06:27:58;13.90;86.20
40622;DHT22;26324;52.040;11.528;2023-08-30T06:30:26;14.00;85.50
40622;DHT22;26324;52.040;11.528;2023-08-30T06:32:53;14.30;85.00
40622;DHT22;26324;52.040;11.528;2023-08-30T06:35:21;14.50;84.40
40622;DHT22;26324;52.040;11.528;2023-08-30T06:37:49;14.60;84.20
40622;DHT22;26324;52.040;11.528;2023-08-30T06:40:17;14.50;84.20
40622;DHT22;26324;52.040;11.528;2023-08-30T06:42:44;14.60;84.40
40622;DHT22;26324;52.040;11.528;2023-08-30T06:45:11;14.70;83.50
40622;DHT22;26324;52.040;11.528;2023-08-30T06:47:39;14.60;83.50
40622;DHT22;26324;52.040;11.528;2023-08-30T06:50:06;14.70;83.50
40622;DHT22;26324;52.040;11.528;2023-08-30T06:52:36;14.70;82.80
40622;DHT22;26324;52.040;11.528;2023-08-30T06:55:04;14.80;82.60
40622;DHT22;26324;52.040;11.528;2023-08-30T06:57:32;15.00;82.40
40622;DHT22;26324;52.040;11.528;2023-08-30T06:59:59;15.10;81.50
40622;DHT22;26324;52.040;11.528;2023-08-30T07:02:36;15.30;81.10
40622;DHT22;26324;52.040;11.528;2023-08-30T07:05:04;15.30;81.40
40622;DHT22;26324;52.040;11.528;2023-08-30T07:07:32;15.40;81.20
40622;DHT22;26324;52.040;11.528;2023-08-30T07:09:59;15.60;80.60
40622;DHT22;26324;52.040;11.528;2023-08-30T07:12:27;15.70;79.80
40622;DHT22;26324;52.040;11.528;2023-08-30T07:14:54;15.80;79.40
40622;DHT22;26324;52.040;11.528;2023-08-30T07:17:22;15.90;79.00
40622;DHT22;26324;52.040;11.528;2023-08-30T07:19:51;16.00;78.50
40622;DHT22;26324;52.040;11.528;2023-08-30T07:22:19;16.30;77.50
40622;DHT22;26324;52.040;11.528;2023-08-30T07:24:47;16.30;77.80
40622;DHT22;26324;52.040;11.528;2023-08-30T07:27:14;16.60;76.80
40622;DHT22;26324;52.040;11.528;2023-08-30T07:29:41;16.80;77.30
40622;DHT22;26324;52.040;11.528;2023-08-30T07:32:09;16.90;77.30
40622;DHT22;26324;52.040;11.528;2023-08-30T07:34:36;17.00;75.90
40622;DHT22;26324;52.040;11.528;2023-08-30T07:37:04;17.10;76.40
40622;DHT22;26324;52.040;11.528;2023-08-30T07:39:31;17.30;75.40
40622;DHT22;26324;52.040;11.528;2023-08-30T07:41:58;17.40;75.90
40622;DHT22;26324;52.040;11.528;2023-08-30T07:44:27;17.60;74.60
40622;DHT22;26324;52.040;11.528;2023-08-30T07:46:54;17.70;73.80
40622;DHT22;26324;52.040;11.528;2023-08-30T07:49:21;17.70;74.40
40622;DHT22;26324;52.040;11.528;2023-08-30T07:51:49;17.80;73.70
40622;DHT22;26324;52.040;11.528;2023-08-30T07:54:16;17.90;74.10
40622;DHT22;26324;52.040;11.528;2023-08-30T07:56:43;18.20;73.60
40622;DHT22;26324;52.040;11.528;2023-08-30T07:59:12;18.50;72.20
40622;DHT22;26324;52.040;11.528;2023-08-30T08:01:40;18.80;69.40
40622;DHT22;26324;52.040;11.528;2023-08-30T08:04:07;18.90;68.00
40622;DHT22;26324;52.040;11.528;2023-08-30T08:06:35;19.00;68.90
40622;DHT22;26324;52.040;11.528;2023-08-30T08:09:05;19.10;66.60
40622;DHT22;26324;52.040;11.528;2023-08-30T08:11:33;19.10;67.30
40622;DHT22;26324;52.040;11.528;2023-08-30T08:14:00;18.90;69.00
40622;DHT22;26324;52.040;11.528;2023-08-30T08:16:29;18.70;68.60
40622;DHT22;26324;52.040;11.528;2023-08-30T08:18:56;18.90;69.00
40622;DHT22;26324;52.040;11.528;2023-08-30T08:21:27;19.00;68.10
40622;DHT22;26324;52.040;11.528;2023-08-30T08:23:54;19.10;67.90
40622;DHT22;26324;52.040;11.528;2023-08-30T08:26:21;19.30;65.50
40622;DHT22;26324;52.040;11.528;2023-08-30T08:28:49;19.30;65.40
40622;DHT22;26324;52.040;11.528;2023-08-30T08:31:18;19.20;66.20
40622;DHT22;26324;52.040;11.528;2023-08-30T08:33:45;19.10;66.00
40622;DHT22;26324;52.040;11.528;2023-08-30T08:36:13;19.10;64.40
40622;DHT22;26324;52.040;11.528;2023-08-30T08:38:40;19.20;64.80
40622;DHT22;26324;52.040;11.528;2023-08-30T08:41:12;19.40;64.50
40622;DHT22;26324;52.040;11.528;2023-08-30T08:43:42;19.50;63.40
40622;DHT22;26324;52.040;11.528;2023-08-30T08:46:12;19.60;62.00
40622;DHT22;26324;52.040;11.528;2023-08-30T08:48:43;19.80;61.70
40622;DHT22;26324;52.040;11.528;2023-08-30T08:51:12;19.80;60.50
40622;DHT22;26324;52.040;11.528;2023-08-30T08:53:41;19.70;61.10
40622;DHT22;26324;52.040;11.528;2023-08-30T08:56:09;19.80;61.50
40622;DHT22;26324;52.040;11.528;2023-08-30T08:58:37;19.90;60.00
40622;DHT22;26324;52.040;11.528;2023-08-30T09:01:06;20.10;59.10
40622;DHT22;26324;52.040;11.528;2023-08-30T09:03:44;20.20;58.90
40622;DHT22;26324;52.040;11.528;2023-08-30T09:06:12;20.40;59.30
40622;DHT22;26324;52.040;11.528;2023-08-30T09:08:40;20.70;57.20
40622;DHT22;26324;52.040;11.528;2023-08-30T09:11:09;20.60;57.00
40622;DHT22;26324;52.040;11.528;2023-08-30T09:13:36;20.90;56.30
40622;DHT22;26324;52.040;11.528;2023-08-30T09:16:12;21.30;53.80
40622;DHT22;26324;52.040;11.528;2023-08-30T09:18:43;21.50;53.60
40622;DHT22;26324;52.040;11.528;2023-08-30T09:21:22;21.70;54.10
40622;DHT22;26324;52.040;11.528;2023-08-30T09:24:00;21.90;52.80
40622;DHT22;26324;52.040;11.528;2023-08-30T09:26:32;22.00;51.40
40622;DHT22;26324;52.040;11.528;2023-08-30T09:29:06;22.10;51.80
40622;DHT22;26324;52.040;11.528;2023-08-30T09:31:35;22.40;51.90
40622;DHT22;26324;52.040;11.528;2023-08-30T09:34:04;22.50;49.90
40622;DHT22;26324;52.040;11.528;2023-08-30T09:36:38;22.70;48.80
40622;DHT22;26324;52.040;11.528;2023-08-30T09:39:11;22.80;47.80
40622;DHT22;26324;52.040;11.528;2023-08-30T09:41:44;22.90;46.80
40622;DHT22;26324;52.040;11.528;2023-08-30T09:44:13;23.00;49.70
40622;DHT22;26324;52.040;11.528;2023-08-30T09:46:51;23.20;46.50
40622;DHT22;26324;52.040;11.528;2023-08-30T09:49:25;23.40;46.70
40622;DHT22;26324;52.040;11.528;2023-08-30T09:51:53;23.80;42.20
40622;DHT22;26324;52.040;11.528;2023-08-30T09:54:26;24.10;41.90
40622;DHT22;26324;52.040;11.528;2023-08-30T09:57:06;24.10;42.60
40622;DHT22;26324;52.040;11.528;2023-08-30T09:59:34;24.20;43.00
40622;DHT22;26324;52.040;11.528;2023-08-30T10:02:02;24.20;41.40
40622;DHT22;26324;52.040;11.528;2023-08-30T10:04:32;24.10;42.70
40622;DHT22;26324;52.040;11.528;2023-08-30T10:07:02;23.70;41.90
40622;DHT22;26324;52.040;11.528;2023-08-30T10:09:32;23.10;43.50
40622;DHT22;26324;52.040;11.528;2023-08-30T10:12:00;22.80;44.60
40622;DHT22;26324;52.040;11.528;2023-08-30T10:14:29;22.50;46.70
40622;DHT22;26324;52.040;11.528;2023-08-30T10:17:01;22.10;47.50
40622;DHT22;26324;52.040;11.528;2023-08-30T10:19:31;22.10;47.50
40622;DHT22;26324;52.040;11.528;2023-08-30T10:22:03;21.80;48.50
40622;DHT22;26324;52.040;11.528;2023-08-30T10:24:46;21.80;49.20
40622;DHT22;26324;52.040;11.528;2023-08-30T10:27:35;21.70;48.50
40622;DHT22;26324;52.040;11.528;2023-08-30T10:30:05;21.60;49.10
40622;DHT22;26324;52.040;11.528;2023-08-30T10:32:42;21.60;50.00
40622;DHT22;26324;52.040;11.528;2023-08-30T10:35:14;21.50;48.90
40622;DHT22;26324;52.040;11.528;2023-08-30T10:37:42;21.60;49.50
40622;DHT22;26324;52.040;11.528;2023-08-30T10:40:10;21.60;52.10
40622;DHT22;26324;52.040;11.528;2023-08-30T10:42:38;21.70;51.60
40622;DHT22;26324;52.040;11.528;2023-08-30T10:45:06;21.60;52.10
40622;DHT22;26324;52.040;11.528;2023-08-30T10:47:37;21.50;51.80
40622;DHT22;26324;52.040;11.528;2023-08-30T10:50:11;21.60;52.90
40622;DHT22;26324;52.040;11.528;2023-08-30T10:52:39;21.50;51.40
40622;DHT22;26324;52.040;11.528;2023-08-30T10:55:11;21.70;51.90
40622;DHT22;26324;52.040;11.528;2023-08-30T10:57:42;21.80;51.10
40622;DHT22;26324;52.040;11.528;2023-08-30T11:00:19;21.90;53.30
40622;DHT22;26324;52.040;11.528;2023-08-30T11:02:49;22.00;53.20
40622;DHT22;26324;52.040;11.528;2023-08-30T11:05:20;22.00;50.30
40622;DHT22;26324;52.040;11.528;2023-08-30T11:07:49;22.10;50.70
40622;DHT22;26324;52.040;11.528;2023-08-30T11:10:19;22.10;49.90
40622;DHT22;26324;52.040;11.528;2023-08-30T11:12:47;22.10;49.50
40622;DHT22;26324;52.040;11.528;2023-08-30T11:15:36;22.10;48.90
40622;DHT22;26324;52.040;11.528;2023-08-30T11:18:04;21.90;50.20
40622;DHT22;26324;52.040;11.528;2023-08-30T11:20:32;21.90;49.10
40622;DHT22;26324;52.040;11.528;2023-08-30T11:23:02;22.00;49.70
40622;DHT22;26324;52.040;11.528;2023-08-30T11:25:30;21.80;51.60
40622;DHT22;26324;52.040;11.528;2023-08-30T11:28:03;21.50;49.10
40622;DHT22;26324;52.040;11.528;2023-08-30T11:30:31;21.60;49.80
40622;DHT22;26324;52.040;11.528;2023-08-30T11:32:58;21.60;49.70
40622;DHT22;26324;52.040;11.528;2023-08-30T11:35:27;21.50;50.50
40622;DHT22;26324;52.040;11.528;2023-08-30T11:37:54;21.40;51.10
40622;DHT22;26324;52.040;11.528;2023-08-30T11:40:22;21.50;51.80
40622;DHT22;26324;52.040;11.528;2023-08-30T11:42:49;21.50;50.20
40622;DHT22;26324;52.040;11.528;2023-08-30T11:45:17;21.60;49.50
40622;DHT22;26324;52.040;11.528;2023-08-30T11:47:44;21.70;51.00
40622;DHT22;26324;52.040;11.528;2023-08-30T11:50:12;21.70;49.00
40622;DHT22;26324;52.040;11.528;2023-08-30T11:52:40;22.00;50.10
40622;DHT22;26324;52.040;11.528;2023-08-30T11:55:08;22.10;48.90
40622;DHT22;26324;52.040;11.528;2023-08-30T11:57:36;22.40;48.90
40622;DHT22;26324;52.040;11.528;2023-08-30T12:00:10;22.80;50.60
40622;DHT22;26324;52.040;11.528;2023-08-30T12:02:41;23.10;49.10
40622;DHT22;26324;52.040;11.528;2023-08-30T12:05:11;23.50;50.00
40622;DHT22;26324;52.040;11.528;2023-08-30T12:07:39;23.90;48.80
40622;DHT22;26324;52.040;11.528;2023-08-30T12:10:08;24.20;44.90
40622;DHT22;26324;52.040;11.528;2023-08-30T12:12:37;24.60;43.80
40622;DHT22;26324;52.040;11.528;2023-08-30T12:15:11;25.00;43.00
40622;DHT22;26324;52.040;11.528;2023-08-30T12:17:40;25.20;44.20
40622;DHT22;26324;52.040;11.528;2023-08-30T12:20:15;25.40;46.20
40622;DHT22;26324;52.040;11.528;2023-08-30T12:22:43;25.20;41.80
40622;DHT22;26324;52.040;11.528;2023-08-30T12:25:21;25.40;42.00
40622;DHT22;26324;52.040;11.528;2023-08-30T12:27:50;25.50;43.00
40622;DHT22;26324;52.040;11.528;2023-08-30T12:30:19;25.60;40.40
40622;DHT22;26324;52.040;11.528;2023-08-30T12:32:46;25.90;42.10
40622;DHT22;26324;52.040;11.528;2023-08-30T12:35:14;26.20;38.40
40622;DHT22;26324;52.040;11.528;2023-08-30T12:37:42;26.10;40.80
40622;DHT22;26324;52.040;11.528;2023-08-30T12:40:10;26.00;38.40
40622;DHT22;26324;52.040;11.528;2023-08-30T12:42:38;25.80;40.00
40622;DHT22;26324;52.040;11.528;2023-08-30T12:45:05;25.30;40.70
40622;DHT22;26324;52.040;11.528;2023-08-30T12:47:35;24.80;41.30
40622;DHT22;26324;52.040;11.528;2023-08-30T12:50:03;24.60;42.60
40622;DHT22;26324;52.040;11.528;2023-08-30T12:52:30;24.20;46.10
40622;DHT22;26324;52.040;11.528;2023-08-30T12:54:58;24.10;45.90
40622;DHT22;26324;52.040;11.528;2023-08-30T12:57:25;23.90;45.70
40622;DHT22;26324;52.040;11.528;2023-08-30T12:59:53;23.90;47.00
40622;DHT22;26324;52.040;11.528;2023-08-30T13:02:20;23.70;47.60
40622;DHT22;26324;52.040;11.528;2023-08-30T13:04:48;23.60;48.30
40622;DHT22;26324;52.040;11.528;2023-08-30T13:07:15;23.60;48.20
40622;DHT22;26324;52.040;11.528;2023-08-30T13:09:43;23.50;47.80
40622;DHT22;26324;52.040;11.528;2023-08-30T13:12:10;23.50;48.10
40622;DHT22;26324;52.040;11.528;2023-08-30T13:14:38;23.40;49.10
40622;DHT22;26324;52.040;11.528;2023-08-30T13:17:06;23.20;47.30
40622;DHT22;26324;52.040;11.528;2023-08-30T13:19:33;23.10;49.20
40622;DHT22;26324;52.040;11.528;2023-08-30T13:22:01;23.10;46.80
40622;DHT22;26324;52.040;11.528;2023-08-30T13:24:28;23.20;47.00
40622;DHT22;26324;52.040;11.528;2023-08-30T13:26:57;23.30;46.70
40622;DHT22;26324;52.040;11.528;2023-08-30T13:29:24;23.30;46.80
40622;DHT22;26324;52.040;11.528;2023-08-30T13:31:52;23.50;48.50
40622;DHT22;26324;52.040;11.528;2023-08-30T13:34:19;23.60;46.40
40622;DHT22;26324;52.040;11.528;2023-08-30T13:36:46;23.70;48.10
40622;DHT22;26324;52.040;11.528;2023-08-30T13:39:14;23.60;45.60
40622;DHT22;26324;52.040;11.528;2023-08-30T13:41:42;23.50;47.60
40622;DHT22;26324;52.040;11.528;2023-08-30T13:44:09;23.50;47.70
40622;DHT22;26324;52.040;11.528;2023-08-30T13:46:36;23.30;45.70
40622;DHT22;26324;52.040;11.528;2023-08-30T13:49:04;23.30;47.40
40622;DHT22;26324;52.040;11.528;2023-08-30T13:51:32;23.20;47.40
40622;DHT22;26324;52.040;11.528;2023-08-30T13:53:59;23.30;47.20
40622;DHT22;26324;52.040;11.528;2023-08-30T13:56:28;23.30;46.90
40622;DHT22;26324;52.040;11.528;2023-08-30T13:58:57;23.40;45.90
40622;DHT22;26324;52.040;11.528;2023-08-30T14:01:25;23.30;48.00
40622;DHT22;26324;52.040;11.528;2023-08-30T14:03:52;23.20;46.10
40622;DHT22;26324;52.040;11.528;2023-08-30T14:06:19;23.00;45.90
40622;DHT22;26324;52.040;11.528;2023-08-30T14:08:47;22.80;45.60
40622;DHT22;26324;52.040;11.528;2023-08-30T14:11:14;22.70;46.70
40622;DHT22;26324;52.040;11.528;2023-08-30T14:13:42;22.50;46.60
40622;DHT22;26324;52.040;11.528;2023-08-30T14:16:09;22.50;45.50
40622;DHT22;26324;52.040;11.528;2023-08-30T14:18:37;22.30;45.60
40622;DHT22;26324;52.040;11.528;2023-08-30T14:21:05;22.10;45.90
40622;DHT22;26324;52.040;11.528;2023-08-30T14:23:32;22.30;47.10
40622;DHT22;26324;52.040;11.528;2023-08-30T14:26:04;22.20;48.20
40622;DHT22;26324;52.040;11.528;2023-08-30T14:28:36;22.30;47.40
40622;DHT22;26324;52.040;11.528;2023-08-30T14:31:07;22.10;47.10
40622;DHT22;26324;52.040;11.528;2023-08-30T14:33:35;22.00;47.90
40622;DHT22;26324;52.040;11.528;2023-08-30T14:36:07;22.00;48.70
40622;DHT22;26324;52.040;11.528;2023-08-30T14:38:35;22.10;49.50
40622;DHT22;26324;52.040;11.528;2023-08-30T14:41:04;22.10;49.10
40622;DHT22;26324;52.040;11.528;2023-08-30T14:43:32;21.90;50.20
40622;DHT22;26324;52.040;11.528;2023-08-30T14:46:05;21.90;50.90
40622;DHT22;26324;52.040;11.528;2023-08-30T14:48:39;21.70;49.90
40622;DHT22;26324;52.040;11.528;2023-08-30T14:51:07;21.50;51.80
40622;DHT22;26324;52.040;11.528;2023-08-30T14:53:34;21.40;51.50
40622;DHT22;26324;52.040;11.528;2023-08-30T14:56:04;21.40;52.10
40622;DHT22;26324;52.040;11.528;2023-08-30T14:58:35;21.50;52.10
40622;DHT22;26324;52.040;11.528;2023-08-30T15:01:03;21.60;50.70
40622;DHT22;26324;52.040;11.528;2023-08-30T15:03:31;21.50;51.50
40622;DHT22;26324;52.040;11.528;2023-08-30T15:05:59;21.60;50.90
40622;DHT22;26324;52.040;11.528;2023-08-30T15:08:27;21.60;51.60
40622;DHT22;26324;52.040;11.528;2023-08-30T15:10:54;21.60;51.50
40622;DHT22;26324;52.040;11.528;2023-08-30T15:13:22;21.50;53.30
40622;DHT22;26324;52.040;11.528;2023-08-30T15:15:49;21.50;51.90
40622;DHT22;26324;52.040;11.528;2023-08-30T15:18:17;21.30;52.50
40622;DHT22;26324;52.040;11.528;2023-08-30T15:20:45;21.30;53.10
40622;DHT22;26324;52.040;11.528;2023-08-30T15:23:14;21.30;52.40
40622;DHT22;26324;52.040;11.528;2023-08-30T15:25:47;21.30;53.50
40622;DHT22;26324;52.040;11.528;2023-08-30T15:28:15;21.30;53.10
40622;DHT22;26324;52.040;11.528;2023-08-30T15:30:43;21.30;52.30